createdAt,value
2023-09-01T00:01:02.377Z,5.50
2023-09-01T00:03:29.107Z,6.82
2023-09-01T00:05:55.691Z,4.63
2023-09-01T00:08:22.274Z,4.05
2023-09-01T00:10:48.797Z,3.88
2023-09-01T00:13:15.312Z,5.65
2023-09-01T00:15:41.819Z,6.00
2023-09-01T00:18:08.241Z,6.33
2023-09-01T00:20:36.145Z,7.00
2023-09-01T00:23:04.818Z,4.47
2023-09-01T00:25:32.039Z,4.93
2023-09-01T00:27:58.495Z,4.55
2023-09-01T00:30:30.569Z,4.93
2023-09-01T00:32:57.641Z,5.15
2023-09-01T00:35:24.120Z,6.38
2023-09-01T00:37:52.669Z,6.18
2023-09-01T00:40:19.279Z,7.57
2023-09-01T00:42:45.717Z,5.60
2023-09-01T00:45:12.305Z,4.82
2023-09-01T00:47:38.844Z,5.68
2023-09-01T00:50:09.829Z,5.95
2023-09-01T00:52:36.864Z,6.80
2023-09-01T00:55:04.306Z,6.27
2023-09-01T00:57:31.001Z,7.80
2023-09-01T00:59:58.199Z,11.07
2023-09-01T01:02:26.813Z,5.15
2023-09-01T01:04:56.152Z,6.82
2023-09-01T01:07:31.249Z,7.00
2023-09-01T01:10:17.658Z,10.23
2023-09-01T01:12:58.811Z,9.13
2023-09-01T01:15:26.383Z,6.60
2023-09-01T01:17:56.297Z,5.88
2023-09-01T01:20:34.453Z,5.83
2023-09-01T01:23:12.187Z,5.55
2023-09-01T01:25:46.450Z,6.60
2023-09-01T01:28:13.139Z,5.35
2023-09-01T01:30:40.455Z,5.95
2023-09-01T01:33:15.606Z,5.80
2023-09-01T01:35:54.833Z,6.03
2023-09-01T01:38:29.249Z,6.32
2023-09-01T01:41:11.028Z,7.70
2023-09-01T01:43:39.625Z,8.43
2023-09-01T01:46:07.212Z,9.43
2023-09-01T01:48:39.780Z,6.68
2023-09-01T01:51:09.086Z,7.20
2023-09-01T01:53:36.335Z,7.63
2023-09-01T01:56:04.886Z,7.25
2023-09-01T01:58:32.162Z,10.13
2023-09-01T02:00:59.406Z,8.10
2023-09-01T02:03:25.888Z,6.45
2023-09-01T02:05:54.622Z,7.10
2023-09-01T02:08:22.578Z,8.63
2023-09-01T02:10:49.834Z,8.27
2023-09-01T02:13:16.266Z,9.32
2023-09-01T02:15:51.761Z,8.18
2023-09-01T02:18:18.425Z,10.43
2023-09-01T02:20:46.499Z,9.00
2023-09-01T02:23:21.002Z,9.07
2023-09-01T02:25:47.528Z,10.48
2023-09-01T02:28:14.357Z,8.68
2023-09-01T02:30:41.049Z,10.30
2023-09-01T02:33:07.823Z,9.18
2023-09-01T02:35:42.890Z,8.43
2023-09-01T02:38:09.340Z,8.80
2023-09-01T02:40:35.775Z,9.85
2023-09-01T02:43:02.197Z,9.77
2023-09-01T02:45:28.696Z,9.90
2023-09-01T02:47:55.185Z,11.47
2023-09-01T02:50:21.708Z,12.07
2023-09-01T02:52:48.179Z,10.40
2023-09-01T02:55:17.345Z,11.05
2023-09-01T02:57:43.806Z,12.50
2023-09-01T03:00:19.336Z,10.70
2023-09-01T03:02:46.757Z,11.60
2023-09-01T03:05:13.478Z,10.00
2023-09-01T03:07:40.296Z,13.00
2023-09-01T03:10:09.197Z,11.35
2023-09-01T03:12:38.724Z,10.40
2023-09-01T03:15:10.432Z,11.25
2023-09-01T03:17:37.193Z,13.38
2023-09-01T03:20:05.560Z,11.45
2023-09-01T03:22:32.486Z,11.52
2023-09-01T03:24:58.950Z,11.20
2023-09-01T03:27:25.408Z,12.70
2023-09-01T03:29:55.185Z,11.35
2023-09-01T03:32:21.709Z,14.57
2023-09-01T03:34:48.276Z,10.85
2023-09-01T03:37:14.795Z,10.00
2023-09-01T03:39:41.263Z,9.57
2023-09-01T03:42:07.763Z,11.27
2023-09-01T03:44:34.512Z,9.20
2023-09-01T03:47:00.985Z,12.05
2023-09-01T03:49:27.862Z,10.13
2023-09-01T03:51:54.412Z,9.35
2023-09-01T03:54:20.844Z,11.38
2023-09-01T03:56:47.279Z,11.32
2023-09-01T03:59:13.735Z,11.23
2023-09-01T04:01:40.216Z,10.37
2023-09-01T04:04:07.657Z,10.40
2023-09-01T04:06:34.144Z,10.05
2023-09-01T04:09:00.700Z,11.50
2023-09-01T04:11:27.164Z,14.35
2023-09-01T04:13:56.255Z,10.57
2023-09-01T04:16:23.449Z,10.23
2023-09-01T04:18:50.010Z,8.85
2023-09-01T04:21:16.518Z,10.40
2023-09-01T04:23:43.088Z,9.63
2023-09-01T04:26:09.715Z,11.20
2023-09-01T04:28:36.186Z,13.65
2023-09-01T04:31:03.824Z,12.55
2023-09-01T04:33:31.089Z,13.13
2023-09-01T04:36:01.644Z,11.77
2023-09-01T04:38:28.172Z,7.13
2023-09-01T04:40:56.767Z,10.98
2023-09-01T04:43:26.625Z,6.13
2023-09-01T04:45:56.962Z,5.38
2023-09-01T04:48:24.262Z,6.75
2023-09-01T04:50:51.227Z,6.73
2023-09-01T04:53:18.771Z,9.90
2023-09-01T04:55:45.624Z,6.88
2023-09-01T04:58:12.212Z,6.75
2023-09-01T05:00:39.072Z,8.50
2023-09-01T05:03:05.802Z,10.73
2023-09-01T05:05:32.322Z,6.55
2023-09-01T05:07:58.821Z,8.52
2023-09-01T05:10:25.278Z,6.43
2023-09-01T05:12:51.744Z,8.80
2023-09-01T05:15:20.053Z,8.23
2023-09-01T05:17:47.253Z,8.40
2023-09-01T05:20:13.740Z,6.72
2023-09-01T05:22:40.373Z,9.13
2023-09-01T05:25:07.525Z,8.10
2023-09-01T05:27:33.942Z,10.03
2023-09-01T05:30:00.561Z,8.43
2023-09-01T05:32:27.031Z,8.98
2023-09-01T05:34:53.527Z,7.20
2023-09-01T05:37:19.969Z,7.68
2023-09-01T05:39:46.404Z,8.40
2023-09-01T05:42:13.124Z,7.30
2023-09-01T05:44:39.581Z,9.40
2023-09-01T05:47:06.237Z,9.27
2023-09-01T05:49:33.905Z,11.15
2023-09-01T05:52:01.821Z,9.77
2023-09-01T05:54:28.644Z,7.85
2023-09-01T05:56:55.642Z,8.38
2023-09-01T05:59:22.410Z,7.53
2023-09-01T06:01:49.187Z,7.30
2023-09-01T06:04:15.649Z,8.30
2023-09-01T06:06:42.920Z,9.23
2023-09-01T06:09:09.834Z,9.05
2023-09-01T06:11:38.316Z,7.88
2023-09-01T06:14:05.038Z,8.68
2023-09-01T06:16:31.501Z,9.63
2023-09-01T06:19:04.405Z,8.60
2023-09-01T06:21:32.256Z,10.07
2023-09-01T06:23:58.833Z,10.65
2023-09-01T06:26:25.281Z,8.07
2023-09-01T06:28:51.742Z,7.10
2023-09-01T06:31:18.304Z,9.05
2023-09-01T06:33:45.993Z,7.90
2023-09-01T06:36:14.466Z,11.02
2023-09-01T06:38:42.404Z,11.20
2023-09-01T06:41:10.144Z,9.27
2023-09-01T06:43:37.244Z,11.00
2023-09-01T06:46:04.216Z,10.52
2023-09-01T06:48:32.373Z,7.68
2023-09-01T06:51:03.651Z,20.20
2023-09-01T06:53:30.895Z,10.37
2023-09-01T06:55:57.461Z,7.72
2023-09-01T06:58:23.997Z,10.35
2023-09-01T07:00:52.683Z,9.70
2023-09-01T07:03:21.321Z,9.82
2023-09-01T07:05:55.253Z,6.37
2023-09-01T07:08:22.061Z,9.50
2023-09-01T07:10:48.610Z,8.63
2023-09-01T07:13:15.098Z,12.82
2023-09-01T07:15:41.603Z,14.15
2023-09-01T07:18:08.209Z,11.20
2023-09-01T07:20:34.654Z,12.20
2023-09-01T07:23:01.144Z,13.80
2023-09-01T07:25:27.568Z,13.90
2023-09-01T07:27:54.048Z,12.00
2023-09-01T07:30:20.829Z,8.97
2023-09-01T07:32:48.196Z,10.32
2023-09-01T07:35:14.710Z,12.05
2023-09-01T07:37:41.152Z,11.60
2023-09-01T07:40:08.188Z,12.63
2023-09-01T07:42:34.643Z,7.77
2023-09-01T07:45:01.097Z,8.70
2023-09-01T07:47:27.742Z,10.82
2023-09-01T07:49:54.213Z,11.18
2023-09-01T07:52:20.662Z,10.75
2023-09-01T07:54:47.136Z,8.93
2023-09-01T07:57:13.615Z,9.15
2023-09-01T07:59:41.006Z,7.88
2023-09-01T08:02:07.579Z,10.63
2023-09-01T08:04:34.164Z,11.35
2023-09-01T08:07:00.861Z,8.10
2023-09-01T08:09:27.745Z,9.20
2023-09-01T08:11:54.170Z,7.28
2023-09-01T08:14:20.652Z,8.45
2023-09-01T08:16:47.094Z,9.88
2023-09-01T08:19:13.551Z,9.43
2023-09-01T08:21:40.102Z,10.38
2023-09-01T08:24:08.196Z,10.20
2023-09-01T08:26:35.052Z,11.57
2023-09-01T08:29:01.481Z,12.70
2023-09-01T08:31:28.009Z,10.80
2023-09-01T08:33:55.355Z,10.52
2023-09-01T08:36:22.749Z,10.70
2023-09-01T08:38:49.244Z,10.88
2023-09-01T08:41:15.738Z,10.93
2023-09-01T08:43:43.552Z,10.20
2023-09-01T08:46:14.974Z,12.52
2023-09-01T08:48:42.733Z,7.63
2023-09-01T08:51:09.773Z,8.20
2023-09-01T08:53:40.082Z,11.90
2023-09-01T08:56:06.780Z,16.90
2023-09-01T08:58:33.811Z,8.73
2023-09-01T09:01:00.518Z,11.05
2023-09-01T09:03:27.203Z,8.77
2023-09-01T09:05:54.254Z,8.20
2023-09-01T09:08:21.472Z,11.60
2023-09-01T09:10:47.930Z,10.85
2023-09-01T09:13:25.441Z,11.73
2023-09-01T09:16:07.005Z,10.20
2023-09-01T09:18:33.755Z,7.00
2023-09-01T09:21:00.833Z,8.97
2023-09-01T09:23:46.599Z,13.07
2023-09-01T09:26:13.653Z,9.07
2023-09-01T09:28:41.452Z,8.95
2023-09-01T09:31:08.072Z,9.63
2023-09-01T09:33:35.459Z,10.80
2023-09-01T09:36:04.524Z,8.32
2023-09-01T09:38:45.017Z,8.40
2023-09-01T09:41:11.532Z,11.70
2023-09-01T09:43:49.103Z,10.43
2023-09-01T09:46:17.395Z,10.07
2023-09-01T09:48:44.842Z,8.85
2023-09-01T09:51:11.707Z,11.30
2023-09-01T09:53:42.633Z,11.65
2023-09-01T09:56:15.023Z,9.35
2023-09-01T09:58:41.911Z,12.63
2023-09-01T10:01:19.102Z,13.48
2023-09-01T10:03:47.559Z,9.75
2023-09-01T10:06:15.910Z,8.13
2023-09-01T10:08:43.175Z,14.88
2023-09-01T10:11:10.518Z,9.70
2023-09-01T10:13:37.986Z,10.95
2023-09-01T10:16:04.736Z,11.52
2023-09-01T10:18:32.473Z,7.35
2023-09-01T10:20:59.012Z,9.98
2023-09-01T10:23:26.111Z,8.27
2023-09-01T10:26:17.900Z,9.55
2023-09-01T10:29:17.672Z,9.68
2023-09-01T10:31:45.372Z,10.95
2023-09-01T10:34:16.202Z,9.38
2023-09-01T10:36:44.413Z,9.30
2023-09-01T10:39:20.026Z,7.35
2023-09-01T10:42:04.246Z,9.35
2023-09-01T10:44:45.733Z,7.88
2023-09-01T10:47:34.414Z,14.95
2023-09-01T10:50:04.020Z,7.33
2023-09-01T10:52:32.730Z,12.18
2023-09-01T10:55:05.253Z,10.13
2023-09-01T10:57:50.264Z,11.10
2023-09-01T11:00:34.156Z,11.55
2023-09-01T11:03:32.341Z,10.93
2023-09-01T11:06:00.452Z,10.32
2023-09-01T11:08:27.522Z,10.63
2023-09-01T11:11:06.945Z,12.45
2023-09-01T11:13:33.637Z,10.15
2023-09-01T11:16:09.156Z,10.50
2023-09-01T11:18:35.857Z,7.15
2023-09-01T11:21:02.450Z,7.55
2023-09-01T11:23:33.945Z,8.88
2023-09-01T11:26:01.535Z,6.90
2023-09-01T11:28:29.411Z,6.83
2023-09-01T11:30:58.077Z,7.65
2023-09-01T11:33:26.374Z,8.57
2023-09-01T11:36:05.925Z,5.68
2023-09-01T11:38:32.526Z,6.57
2023-09-01T11:41:01.200Z,5.93
2023-09-01T11:43:30.261Z,5.93
2023-09-01T11:45:58.562Z,7.03
2023-09-01T11:48:26.182Z,9.65
2023-09-01T11:50:58.507Z,6.63
2023-09-01T11:53:28.058Z,6.40
2023-09-01T11:55:59.739Z,6.93
2023-09-01T11:58:45.578Z,8.70
2023-09-01T12:01:13.172Z,5.82
2023-09-01T12:03:43.860Z,7.15
2023-09-01T12:06:25.913Z,7.53
2023-09-01T12:08:54.275Z,9.40
2023-09-01T12:11:23.285Z,7.15
2023-09-01T12:13:50.015Z,6.85
2023-09-01T12:16:24.814Z,5.88
2023-09-01T12:18:52.950Z,10.57
2023-09-01T12:21:19.875Z,10.13
2023-09-01T12:23:48.018Z,9.30
2023-09-01T12:26:16.978Z,9.55
2023-09-01T12:28:44.700Z,7.88
2023-09-01T12:31:12.544Z,15.03
2023-09-01T12:33:39.437Z,12.40
2023-09-01T12:36:06.146Z,10.48
2023-09-01T12:38:32.750Z,12.15
2023-09-01T12:40:59.256Z,10.50
2023-09-01T12:43:25.691Z,10.77
2023-09-01T12:45:52.308Z,10.43
2023-09-01T12:48:18.995Z,8.90
2023-09-01T12:50:47.763Z,9.63
2023-09-01T12:53:15.641Z,12.88
2023-09-01T12:55:42.470Z,9.43
2023-09-01T12:58:09.767Z,10.30
2023-09-01T13:00:36.234Z,9.02
2023-09-01T13:03:02.782Z,11.60
2023-09-01T13:05:31.698Z,11.05
2023-09-01T13:08:00.622Z,11.40
2023-09-01T13:10:28.272Z,10.45
2023-09-01T13:12:54.953Z,10.45
2023-09-01T13:15:21.538Z,9.98
2023-09-01T13:17:48.480Z,10.60
2023-09-01T13:20:16.139Z,10.67
2023-09-01T13:22:43.103Z,8.77
2023-09-01T13:25:10.771Z,9.43
2023-09-01T13:27:37.420Z,9.00
2023-09-01T13:30:04.394Z,10.77
2023-09-01T13:32:30.898Z,10.47
2023-09-01T13:34:57.371Z,9.68
2023-09-01T13:37:26.192Z,10.90
2023-09-01T13:40:00.574Z,9.50
2023-09-01T13:42:28.102Z,9.20
2023-09-01T13:44:58.652Z,9.33
2023-09-01T13:47:26.131Z,10.77
2023-09-01T13:49:56.340Z,13.60
2023-09-01T13:52:23.437Z,9.07
2023-09-01T13:54:51.790Z,10.73
2023-09-01T13:57:18.858Z,9.47
2023-09-01T13:59:45.406Z,9.80
2023-09-01T14:02:11.974Z,8.27
2023-09-01T14:04:38.550Z,7.32
2023-09-01T14:07:05.191Z,6.70
2023-09-01T14:09:32.288Z,6.50
2023-09-01T14:11:58.891Z,8.35
2023-09-01T14:14:25.376Z,9.27
2023-09-01T14:16:51.884Z,7.60
2023-09-01T14:19:18.378Z,8.48
2023-09-01T14:21:45.137Z,7.77
2023-09-01T14:24:15.638Z,6.97
2023-09-01T14:26:42.666Z,6.25
2023-09-01T14:29:09.296Z,9.52
2023-09-01T14:31:35.772Z,9.32
2023-09-01T14:34:02.207Z,8.70
2023-09-01T14:36:29.057Z,7.85
2023-09-01T14:38:56.812Z,7.25
2023-09-01T14:41:23.455Z,8.05
2023-09-01T14:43:50.185Z,8.80
2023-09-01T14:46:18.734Z,9.53
2023-09-01T14:48:47.241Z,7.88
2023-09-01T14:51:17.920Z,8.05
2023-09-01T14:53:47.189Z,6.38
2023-09-01T14:56:15.407Z,7.20
2023-09-01T14:58:42.165Z,7.20
2023-09-01T15:01:08.650Z,7.10
2023-09-01T15:03:35.239Z,5.82
2023-09-01T15:06:01.847Z,6.03
2023-09-01T15:08:28.272Z,6.47
2023-09-01T15:10:56.013Z,6.13
2023-09-01T15:13:23.231Z,6.50
2023-09-01T15:15:50.595Z,7.95
2023-09-01T15:18:17.596Z,6.05
2023-09-01T15:20:44.399Z,5.72
2023-09-01T15:23:10.926Z,6.43
2023-09-01T15:25:38.812Z,5.75
2023-09-01T15:28:05.983Z,6.57
2023-09-01T15:30:32.572Z,5.55
2023-09-01T15:32:59.013Z,6.53
2023-09-01T15:35:28.717Z,6.47
2023-09-01T15:37:57.304Z,6.35
2023-09-01T15:40:23.973Z,4.70
2023-09-01T15:42:54.804Z,6.78
2023-09-01T15:45:21.473Z,6.88
2023-09-01T15:47:48.060Z,7.40
2023-09-01T15:50:17.702Z,7.50
2023-09-01T15:52:46.847Z,7.18
2023-09-01T15:55:13.330Z,7.13
2023-09-01T15:57:40.922Z,6.68
2023-09-01T16:00:08.976Z,6.10
2023-09-01T16:02:35.529Z,6.78
2023-09-01T16:05:02.130Z,7.28
2023-09-01T16:07:28.801Z,7.07
2023-09-01T16:09:55.242Z,6.80
2023-09-01T16:12:21.752Z,8.80
2023-09-01T16:14:48.238Z,7.30
2023-09-01T16:17:14.978Z,6.57
2023-09-01T16:19:41.393Z,6.57
2023-09-01T16:22:07.828Z,8.93
2023-09-01T16:24:34.351Z,9.47
2023-09-01T16:27:00.781Z,6.57
2023-09-01T16:29:27.298Z,6.93
2023-09-01T16:31:54.301Z,8.15
2023-09-01T16:34:20.750Z,8.15
2023-09-01T16:36:47.345Z,9.07
2023-09-01T16:39:14.751Z,8.43
2023-09-01T16:41:41.248Z,11.10
2023-09-01T16:44:08.191Z,8.25
2023-09-01T16:46:35.035Z,10.13
2023-09-01T16:49:01.531Z,9.00
2023-09-01T16:51:28.002Z,9.10
2023-09-01T16:53:54.490Z,9.20
2023-09-01T16:56:20.920Z,9.75
2023-09-01T16:58:47.357Z,10.27
2023-09-01T17:01:13.819Z,10.10
2023-09-01T17:03:40.372Z,9.90
2023-09-01T17:06:06.887Z,10.10
2023-09-01T17:08:41.903Z,8.25
2023-09-01T17:11:08.348Z,10.60
2023-09-01T17:13:34.835Z,10.70
2023-09-01T17:16:01.255Z,10.85
2023-09-01T17:18:27.696Z,12.63
2023-09-01T17:20:55.675Z,11.68
2023-09-01T17:23:22.231Z,12.30
2023-09-01T17:25:48.727Z,13.00
2023-09-01T17:28:15.205Z,13.45
2023-09-01T17:30:41.744Z,14.55
2023-09-01T17:33:08.257Z,13.27
2023-09-01T17:35:34.680Z,13.27
2023-09-01T17:38:01.234Z,12.90
2023-09-01T17:40:27.697Z,21.33
2023-09-01T17:42:54.185Z,17.20
2023-09-01T17:45:20.600Z,16.00
2023-09-01T17:47:48.310Z,12.45
2023-09-01T17:50:14.955Z,14.17
2023-09-01T17:52:41.394Z,15.60
2023-09-01T17:55:07.883Z,14.02
2023-09-01T17:57:34.325Z,16.75
2023-09-01T18:00:00.786Z,15.55
2023-09-01T18:02:37.626Z,16.87
2023-09-01T18:05:06.783Z,15.52
2023-09-01T18:07:35.060Z,17.42
2023-09-01T18:10:02.652Z,18.20
2023-09-01T18:12:29.185Z,18.05
2023-09-01T18:14:55.636Z,18.73
2023-09-01T18:17:25.305Z,18.17
2023-09-01T18:19:52.835Z,19.70
2023-09-01T18:22:19.280Z,20.65
2023-09-01T18:24:45.965Z,18.63
2023-09-01T18:27:24.976Z,21.23
2023-09-01T18:29:51.617Z,19.13
2023-09-01T18:32:18.139Z,19.67
2023-09-01T18:34:45.025Z,20.10
2023-09-01T18:37:17.225Z,18.73
2023-09-01T18:39:43.711Z,21.50
2023-09-01T18:42:35.657Z,20.05
2023-09-01T18:45:02.970Z,22.23
2023-09-01T18:47:29.710Z,21.10
2023-09-01T18:49:56.344Z,21.27
2023-09-01T18:52:22.825Z,19.43
2023-09-01T18:54:49.354Z,18.00
2023-09-01T18:57:16.215Z,17.98
2023-09-01T18:59:43.639Z,18.58
2023-09-01T19:02:32.496Z,18.42
2023-09-01T19:05:01.880Z,19.07
2023-09-01T19:07:29.625Z,19.73
2023-09-01T19:09:56.145Z,19.75
2023-09-01T19:12:23.674Z,18.70
2023-09-01T19:14:50.392Z,19.08
2023-09-01T19:17:19.242Z,20.30
2023-09-01T19:19:45.699Z,20.55
2023-09-01T19:22:13.984Z,19.88
2023-09-01T19:24:40.426Z,21.42
2023-09-01T19:27:08.539Z,22.23
2023-09-01T19:29:35.239Z,19.37
2023-09-01T19:32:01.792Z,22.80
2023-09-01T19:34:28.341Z,21.23
2023-09-01T19:36:54.817Z,20.40
2023-09-01T19:39:25.895Z,22.10
2023-09-01T19:41:53.431Z,20.37
2023-09-01T19:44:20.018Z,20.65
2023-09-01T19:46:46.631Z,20.73
2023-09-01T19:49:14.152Z,19.13
2023-09-01T19:51:44.248Z,22.83
2023-09-01T19:54:14.447Z,19.17
2023-09-01T19:56:40.928Z,20.95
2023-09-01T19:59:07.492Z,21.58
2023-09-01T20:01:35.757Z,21.55
2023-09-01T20:04:03.042Z,21.95
2023-09-01T20:06:30.040Z,20.23
2023-09-01T20:09:01.240Z,20.73
2023-09-01T20:11:28.311Z,22.00
2023-09-01T20:13:55.204Z,21.08
2023-09-01T20:16:32.569Z,20.15
2023-09-01T20:19:17.841Z,19.43
2023-09-01T20:21:44.391Z,20.27
2023-09-01T20:24:10.867Z,22.42
2023-09-01T20:26:37.322Z,20.92
2023-09-01T20:29:05.188Z,19.98
2023-09-01T20:31:31.744Z,22.17
2023-09-01T20:33:58.434Z,20.35
2023-09-01T20:36:25.211Z,22.27
2023-09-01T20:38:51.752Z,22.90
2023-09-01T20:41:18.899Z,22.02
2023-09-01T20:43:45.324Z,22.57
2023-09-01T20:46:11.927Z,23.88
2023-09-01T20:48:38.940Z,21.95
2023-09-01T20:51:05.841Z,22.92
2023-09-01T20:53:32.365Z,23.40
2023-09-01T20:56:03.511Z,24.03
2023-09-01T20:58:30.920Z,23.20
2023-09-01T21:00:57.826Z,27.05
2023-09-01T21:03:24.302Z,26.42
2023-09-01T21:05:50.778Z,27.23
2023-09-01T21:08:17.212Z,27.23
2023-09-01T21:10:43.645Z,28.33
2023-09-01T21:13:10.080Z,26.17
2023-09-01T21:15:36.572Z,31.40
2023-09-01T21:18:03.372Z,32.30
2023-09-01T21:20:29.912Z,30.40
2023-09-01T21:22:56.347Z,33.03
2023-09-01T21:25:22.832Z,33.30
2023-09-01T21:27:49.268Z,32.53
2023-09-01T21:30:17.916Z,31.80
2023-09-01T21:32:45.637Z,33.17
2023-09-01T21:35:12.796Z,35.58
2023-09-01T21:37:39.689Z,34.72
2023-09-01T21:40:08.716Z,34.78
2023-09-01T21:42:36.466Z,33.15
2023-09-01T21:45:05.018Z,34.40
2023-09-01T21:47:33.056Z,33.80
2023-09-01T21:49:59.595Z,37.53
2023-09-01T21:52:26.121Z,32.47
2023-09-01T21:54:52.536Z,41.85
2023-09-01T21:57:19.006Z,34.03
2023-09-01T21:59:45.453Z,30.63
2023-09-01T22:02:12.050Z,37.35
2023-09-01T22:04:38.590Z,31.85
2023-09-01T22:07:06.555Z,29.38
2023-09-01T22:09:33.598Z,31.00
2023-09-01T22:12:00.019Z,31.27
2023-09-01T22:14:26.486Z,32.92
2023-09-01T22:16:53.024Z,33.00
2023-09-01T22:19:19.471Z,30.33
2023-09-01T22:21:46.426Z,31.57
2023-09-01T22:24:13.901Z,35.88
2023-09-01T22:26:40.521Z,34.95
2023-09-01T22:29:07.004Z,34.22
2023-09-01T22:31:34.000Z,35.40
2023-09-01T22:34:00.570Z,34.50
2023-09-01T22:36:26.986Z,35.60
2023-09-01T22:38:53.593Z,38.22
2023-09-01T22:41:22.197Z,37.22
2023-09-01T22:43:48.855Z,37.47
2023-09-01T22:46:15.297Z,37.53
2023-09-01T22:48:41.742Z,41.42
2023-09-01T22:51:08.170Z,40.13
2023-09-01T22:53:34.578Z,36.70
2023-09-01T22:56:01.057Z,36.42
2023-09-01T22:58:27.494Z,40.10
2023-09-01T23:00:53.929Z,36.00
2023-09-01T23:03:20.585Z,38.67
2023-09-01T23:05:47.336Z,36.70
2023-09-01T23:08:13.764Z,35.38
2023-09-01T23:10:40.168Z,37.73
2023-09-01T23:13:06.618Z,38.85
2023-09-01T23:15:33.058Z,39.75
2023-09-01T23:17:59.553Z,39.72
2023-09-01T23:20:26.545Z,40.97
2023-09-01T23:22:53.058Z,41.37
2023-09-01T23:25:19.846Z,38.20
2023-09-01T23:27:46.395Z,40.33
2023-09-01T23:30:13.638Z,39.97
2023-09-01T23:32:40.133Z,41.85
2023-09-01T23:35:06.960Z,37.83
2023-09-01T23:37:34.359Z,40.03
2023-09-01T23:40:00.808Z,40.63
2023-09-01T23:42:27.425Z,39.13
2023-09-01T23:44:54.879Z,43.03
2023-09-01T23:47:21.425Z,38.30
2023-09-01T23:49:47.939Z,39.78
2023-09-01T23:52:14.399Z,41.83
2023-09-01T23:54:40.894Z,41.92
2023-09-01T23:57:07.312Z,39.70
2023-09-01T23:59:33.753Z,37.53
